Time;durP1;ratioP1;P1;durP2;ratioP2;P2;SDS_P1;SDS_P2;PMS_P1;PMS_P2;Temp;Humidity;BMP_temperature;BMP_pressure;BME280_temperature;BME280_humidity;BME280_pressure;Samples;Min_cycle;Max_cycle;Signal;HPM_P1;HPM_P2
2023/03/31 00:04:37;;;;;;;20.30;4.13;;;;;;;10.87;100.00;100190.94;10374681;28;20501;-81
2023/03/31 00:09:39;;;;;;;12.38;4.82;;;;;;;10.84;100.00;100175.94;10373725;28;20065;-81
2023/03/31 00:14:40;;;;;;;11.90;4.50;;;;;;;10.91;100.00;100168.63;10374389;28;20037;-81
2023/03/31 00:19:40;;;;;;;12.05;3.83;;;;;;;10.93;100.00;100149.44;10389820;28;20045;-82
2023/03/31 00:24:41;;;;;;;15.38;5.20;;;;;;;10.87;100.00;100145.69;10372955;28;20114;-80
2023/03/31 00:29:42;;;;;;;22.52;4.75;;;;;;;10.91;100.00;100141.53;10374370;28;20188;-83
2023/03/31 00:34:43;;;;;;;7.88;3.95;;;;;;;10.89;100.00;100124.66;10374213;28;20461;-81
2023/03/31 00:39:43;;;;;;;9.55;4.00;;;;;;;10.92;100.00;100110.69;10389479;28;20038;-81
2023/03/31 00:45:18;;;;;;;6.93;4.50;;;;;;;11.09;100.00;100108.25;10390056;28;20067;-81
2023/03/31 00:50:21;;;;;;;10.90;3.75;;;;;;;11.18;100.00;100097.97;10381515;28;20034;-81
2023/03/31 00:55:24;;;;;;;6.75;3.10;;;;;;;11.27;100.00;100083.09;10380682;28;20044;-81
2023/03/31 01:00:24;;;;;;;8.70;4.13;;;;;;;11.29;100.00;100075.56;10380686;28;20107;-81
2023/03/31 01:05:46;;;;;;;7.28;3.70;;;;;;;11.36;100.00;100062.81;10380336;28;20068;-82
2023/03/31 01:10:48;;;;;;;8.63;3.03;;;;;;;11.17;100.00;100045.66;10377816;28;20067;-81
2023/03/31 01:15:48;;;;;;;6.30;3.25;;;;;;;11.06;100.00;100053.69;10394479;28;20029;-81
2023/03/31 01:21:17;;;;;;;6.88;3.70;;;;;;;10.92;100.00;100036.72;10379662;28;20038;-81
2023/03/31 01:26:41;;;;;;;8.05;1.83;;;;;;;10.93;100.00;100022.94;10378431;28;20418;-80
2023/03/31 01:32:19;;;;;;;7.18;3.53;;;;;;;10.78;100.00;100013.47;10377951;28;20034;-79
2023/03/31 01:37:36;;;;;;;8.50;3.85;;;;;;;10.73;100.00;99995.19;10377863;28;20037;-77
2023/03/31 01:42:58;;;;;;;16.77;3.22;;;;;;;10.60;100.00;99987.19;10392678;28;20030;-76
2023/03/31 01:48:02;;;;;;;19.85;4.80;;;;;;;10.50;100.00;99976.00;10379704;28;20050;-77
2023/03/31 01:53:24;;;;;;;24.95;5.13;;;;;;;10.45;100.00;99955.84;10378589;28;20025;-80
2023/03/31 01:58:27;;;;;;;7.32;3.45;;;;;;;10.44;100.00;99942.53;10377870;28;20133;-81
2023/03/31 02:03:33;;;;;;;18.80;3.88;;;;;;;10.48;100.00;99917.50;10377845;28;20140;-83
2023/03/31 02:08:40;;;;;;;15.77;5.90;;;;;;;10.42;100.00;99910.25;10378541;28;20430;-81
2023/03/31 02:13:43;;;;;;;19.10;4.78;;;;;;;10.36;100.00;99896.78;10376328;28;20044;-81
2023/03/31 02:18:43;;;;;;;9.35;4.25;;;;;;;10.27;100.00;99871.88;10392407;28;20437;-82
2023/03/31 02:23:44;;;;;;;14.38;5.55;;;;;;;10.21;100.00;99865.47;10392829;28;20025;-82
2023/03/31 02:28:44;;;;;;;12.88;4.93;;;;;;;10.19;100.00;99843.19;10375860;28;20061;-81
2023/03/31 02:33:45;;;;;;;16.42;4.65;;;;;;;10.17;100.00;99839.03;10375610;28;20037;-82
2023/03/31 02:38:54;;;;;;;5.72;2.78;;;;;;;10.14;100.00;99820.56;10393445;28;20121;-82
2023/03/31 02:43:54;;;;;;;4.72;3.92;;;;;;;10.14;100.00;99799.72;10373490;28;20462;-82
2023/03/31 02:48:55;;;;;;;9.57;3.97;;;;;;;10.10;100.00;99790.41;10377276;28;20116;-82
2023/03/31 02:54:11;;;;;;;16.50;5.18;;;;;;;10.07;100.00;99771.91;10391601;28;20061;-82
2023/03/31 02:59:30;;;;;;;10.60;4.10;;;;;;;10.00;100.00;99763.88;10377737;28;20057;-83
2023/03/31 03:05:04;;;;;;;10.70;2.35;;;;;;;9.97;100.00;99753.50;10375833;28;20496;-81
2023/03/31 03:10:25;;;;;;;17.85;3.78;;;;;;;9.86;100.00;99746.13;10375038;28;20497;-80
2023/03/31 03:15:48;;;;;;;7.57;3.42;;;;;;;9.73;100.00;99730.84;10357605;28;20111;-82
2023/03/31 03:20:49;;;;;;;8.13;1.58;;;;;;;9.54;100.00;99711.03;10389965;28;20041;-82
2023/03/31 03:25:50;;;;;;;6.53;1.52;;;;;;;9.36;100.00;99694.72;10375444;28;20054;-82
2023/03/31 03:30:50;;;;;;;4.28;2.22;;;;;;;9.35;100.00;99684.13;10376403;28;20045;-79
2023/03/31 03:35:50;;;;;;;4.43;2.00;;;;;;;9.33;100.00;99654.66;10374759;28;20044;-83
2023/03/31 03:40:54;;;;;;;11.90;2.17;;;;;;;9.33;100.00;99657.34;10376059;28;20070;-83
2023/03/31 03:45:54;;;;;;;6.47;2.55;;;;;;;9.39;100.00;99634.03;10376160;28;20038;-83
2023/03/31 03:50:56;;;;;;;9.43;3.63;;;;;;;9.40;100.00;99619.47;10390417;28;20183;-83
2023/03/31 03:55:58;;;;;;;12.35;5.22;;;;;;;9.40;100.00;99603.25;10375286;28;20366;-83
2023/03/31 04:00:58;;;;;;;5.80;3.83;;;;;;;9.46;100.00;99588.84;10374799;28;20042;-83
2023/03/31 04:05:59;;;;;;;12.73;5.05;;;;;;;9.54;100.00;99573.19;10374035;28;20048;-83
2023/03/31 04:10:59;;;;;;;14.15;5.57;;;;;;;9.61;100.00;99558.78;10373934;28;20454;-79
2023/03/31 04:15:59;;;;;;;10.43;4.13;;;;;;;9.61;100.00;99547.97;10372386;28;20443;-81
2023/03/31 04:21:02;;;;;;;9.05;5.43;;;;;;;9.61;100.00;99523.66;10377738;28;20037;-82
2023/03/31 04:26:07;;;;;;;13.98;5.70;;;;;;;9.60;100.00;99513.88;10401712;28;20481;-82
2023/03/31 04:31:08;;;;;;;19.35;6.05;;;;;;;9.61;100.00;99500.16;10396387;28;20077;-83
2023/03/31 04:36:17;;;;;;;7.55;3.88;;;;;;;9.63;100.00;99500.72;10364560;28;20371;-82
2023/03/31 04:41:18;;;;;;;4.70;3.47;;;;;;;9.68;100.00;99489.25;10380151;28;20581;-81
2023/03/31 04:46:18;;;;;;;3.88;2.90;;;;;;;9.68;100.00;99476.56;10380287;28;20069;-82
2023/03/31 04:51:19;;;;;;;8.00;4.03;;;;;;;9.65;100.00;99459.97;10380084;28;20065;-82
2023/03/31 04:56:19;;;;;;;7.65;3.08;;;;;;;9.63;100.00;99465.59;10383168;28;20366;-83
2023/03/31 05:01:20;;;;;;;9.65;3.95;;;;;;;9.67;100.00;99455.19;10399683;28;20046;-83
2023/03/31 05:06:20;;;;;;;3.97;2.70;;;;;;;9.70;100.00;99444.75;10381743;28;20080;-84
2023/03/31 05:11:21;;;;;;;4.18;2.45;;;;;;;9.72;100.00;99433.69;10379534;28;20053;-83
2023/03/31 05:16:22;;;;;;;8.25;2.85;;;;;;;9.74;100.00;99431.59;10395806;28;20041;-84
2023/03/31 05:21:22;;;;;;;2.05;1.40;;;;;;;9.68;100.00;99425.22;10380155;28;20366;-83
2023/03/31 05:26:23;;;;;;;1.55;1.40;;;;;;;9.67;100.00;99423.56;10378613;28;20088;-83
2023/03/31 05:31:25;;;;;;;2.30;1.73;;;;;;;9.73;100.00;99413.69;10360773;28;20037;-83
2023/03/31 05:36:25;;;;;;;5.35;2.33;;;;;;;9.69;100.00;99416.03;10376288;28;20034;-84
2023/03/31 05:41:26;;;;;;;4.68;1.85;;;;;;;9.67;100.00;99406.53;10376739;28;20034;-82
2023/03/31 05:46:27;;;;;;;6.55;2.15;;;;;;;9.69;100.00;99399.81;10377486;28;20025;-83
2023/03/31 05:51:27;;;;;;;3.10;1.10;;;;;;;9.69;100.00;99399.81;10376474;28;20038;-82
2023/03/31 05:56:28;;;;;;;5.00;2.35;;;;;;;9.69;100.00;99399.00;10391637;28;20041;-81
2023/03/31 06:01:29;;;;;;;1.20;1.10;;;;;;;9.69;100.00;99402.53;10391309;28;20056;-81
2023/03/31 06:06:29;;;;;;;7.47;1.80;;;;;;;9.66;100.00;99392.16;10376416;28;20494;-81
2023/03/31 06:11:30;;;;;;;2.17;1.63;;;;;;;9.56;100.00;99378.38;10375548;28;20056;-78
2023/03/31 06:16:30;;;;;;;3.97;1.25;;;;;;;9.52;100.00;99378.00;10390668;28;20042;-80
2023/03/31 06:21:31;;;;;;;5.65;2.08;;;;;;;9.60;100.00;99373.34;10374763;28;20065;-80
2023/03/31 06:26:31;;;;;;;8.45;3.58;;;;;;;9.62;100.00;99360.44;10334771;28;1134485;-80
2023/03/31 06:31:32;;;;;;;3.53;1.88;;;;;;;9.66;100.00;99357.03;10379259;28;20073;-81
2023/03/31 06:36:32;;;;;;;6.05;2.08;;;;;;;9.65;100.00;99346.47;10380225;28;20052;-81
2023/03/31 06:41:33;;;;;;;13.63;2.25;;;;;;;9.66;100.00;99359.72;10376692;28;20034;-81
2023/03/31 06:46:33;;;;;;;8.70;2.33;;;;;;;9.76;100.00;99335.69;10360603;28;20129;-82
2023/03/31 06:51:34;;;;;;;9.02;2.53;;;;;;;9.82;100.00;99339.34;10377099;28;20379;-82
2023/03/31 06:56:34;;;;;;;3.15;2.08;;;;;;;9.87;100.00;99338.66;10377042;28;20429;-83
2023/03/31 07:01:36;;;;;;;5.18;2.80;;;;;;;9.87;100.00;99333.25;10376953;28;20129;-83
2023/03/31 07:06:36;;;;;;;4.03;2.67;;;;;;;9.99;100.00;99329.53;10378244;28;20359;-83
2023/03/31 07:11:37;;;;;;;4.25;3.05;;;;;;;10.16;100.00;99324.25;10384512;28;20025;-84
2023/03/31 07:16:37;;;;;;;11.65;4.40;;;;;;;10.28;100.00;99320.78;10394670;28;20038;-84
2023/03/31 07:21:37;;;;;;;8.45;3.65;;;;;;;10.18;100.00;99326.72;10385989;28;20255;-82
2023/03/31 07:26:38;;;;;;;14.63;4.22;;;;;;;10.20;100.00;99298.38;10377087;28;20053;-83
2023/03/31 07:31:39;;;;;;;5.97;4.00;;;;;;;10.33;100.00;99313.56;10384776;28;20556;-85
2023/03/31 07:36:39;;;;;;;7.40;3.55;;;;;;;10.43;100.00;99308.44;10382021;28;20104;-82
2023/03/31 07:41:40;;;;;;;14.13;5.15;;;;;;;10.60;100.00;99295.00;10376506;28;20065;-83
2023/03/31 07:46:41;;;;;;;7.25;3.45;;;;;;;10.70;100.00;99281.69;10375947;28;20044;-82
2023/03/31 07:51:41;;;;;;;11.18;3.78;;;;;;;10.76;100.00;99279.91;10358145;28;20504;-83
2023/03/31 07:56:42;;;;;;;8.18;3.78;;;;;;;10.75;100.00;99282.84;10374495;28;20061;-84
2023/03/31 08:01:43;;;;;;;15.82;4.95;;;;;;;10.98;100.00;99273.88;10393401;28;20075;-83
2023/03/31 08:06:43;;;;;;;15.35;6.32;;;;;;;11.35;100.00;99264.28;10377842;28;20029;-83
2023/03/31 08:11:43;;;;;;;18.25;4.25;;;;;;;11.35;100.00;99269.69;10378686;28;20034;-78
2023/03/31 08:16:44;;;;;;;15.73;5.47;;;;;;;11.41;100.00;99259.78;10389372;28;20046;-71
2023/03/31 08:21:44;;;;;;;18.38;4.47;;;;;;;11.14;100.00;99256.84;10372255;28;20038;-78
2023/03/31 08:26:45;;;;;;;7.93;3.25;;;;;;;10.91;100.00;99250.44;10373090;28;20108;-81
2023/03/31 08:31:45;;;;;;;15.88;6.10;;;;;;;10.83;100.00;99236.44;10373708;28;20400;-81
2023/03/31 08:36:46;;;;;;;7.15;4.45;;;;;;;10.88;100.00;99220.28;10374560;28;20520;-84
2023/03/31 08:42:06;;;;;;;15.35;5.72;;;;;;;11.25;100.00;99209.06;10374337;28;20041;-73
2023/03/31 08:47:09;;;;;;;12.60;4.35;;;;;;;11.25;100.00;99211.78;10388128;28;20080;-75
2023/03/31 08:52:13;;;;;;;8.32;4.70;;;;;;;11.35;100.00;99207.34;10371495;28;20038;-79
2023/03/31 08:57:25;;;;;;;8.90;3.72;;;;;;;11.90;100.00;99208.59;10374807;28;20033;-78
2023/03/31 09:02:32;;;;;;;21.48;4.55;;;;;;;11.94;100.00;99195.34;10393826;28;20030;-82
2023/03/31 09:07:50;;;;;;;17.98;4.80;;;;;;;11.89;100.00;99206.13;10393628;28;20037;-81
2023/03/31 09:13:01;;;;;;;6.70;3.70;;;;;;;11.60;100.00;99192.59;10380853;28;20034;-75
2023/03/31 09:18:13;;;;;;;16.70;4.70;;;;;;;11.52;100.00;99184.88;10395858;28;20517;-74
2023/03/31 09:23:38;;;;;;;9.13;4.07;;;;;;;11.15;100.00;99180.72;10386433;28;20030;-81
2023/03/31 09:28:38;;;;;;;19.88;4.07;;;;;;;11.08;100.00;99185.47;10384119;28;20042;-83
2023/03/31 09:33:42;;;;;;;19.42;4.93;;;;;;;11.21;100.00;99173.53;10380507;28;20034;-74
2023/03/31 09:38:43;;;;;;;37.55;5.93;;;;;;;10.98;100.00;99163.63;10379639;28;20033;-81
2023/03/31 09:43:44;;;;;;;15.50;6.25;;;;;;;11.05;100.00;99161.59;10396506;28;20113;-83
2023/03/31 09:48:59;;;;;;;8.90;4.53;;;;;;;11.08;100.00;99171.13;10380976;28;20033;-83
2023/03/31 09:54:18;;;;;;;12.95;4.18;;;;;;;10.93;100.00;99150.81;10394598;28;20056;-81
2023/03/31 09:59:33;;;;;;;13.98;5.05;;;;;;;10.79;100.00;99156.78;10378780;28;20080;-77
2023/03/31 10:04:33;;;;;;;16.77;4.47;;;;;;;10.75;100.00;99153.69;10379260;28;20413;-79
2023/03/31 10:09:34;;;;;;;8.60;3.13;;;;;;;10.85;100.00;99159.34;10393202;28;20070;-79
2023/03/31 10:14:40;;;;;;;9.07;3.05;;;;;;;10.80;100.00;99145.69;10359555;28;20037;-79
2023/03/31 10:19:52;;;;;;;12.18;4.45;;;;;;;10.53;100.00;99139.19;10391739;28;20132;-82
2023/03/31 10:24:52;;;;;;;15.70;4.70;;;;;;;10.37;100.00;99162.41;10332562;28;20046;-79
2023/03/31 10:29:54;;;;;;;21.33;5.22;;;;;;;10.30;100.00;99159.84;10375487;28;20053;-79
2023/03/31 10:34:55;;;;;;;13.18;4.78;;;;;;;10.72;100.00;99143.38;10375403;28;20030;-84
2023/03/31 10:40:05;;;;;;;12.00;4.43;;;;;;;10.77;100.00;99150.75;10376413;28;20038;-81
2023/03/31 10:45:10;;;;;;;12.68;4.60;;;;;;;10.81;100.00;99141.91;10390620;28;20433;-83
2023/03/31 10:50:14;;;;;;;11.85;3.47;;;;;;;11.01;100.00;99137.91;10375987;28;20041;-81
2023/03/31 10:55:23;;;;;;;14.75;5.78;;;;;;;11.15;100.00;99136.56;10391174;28;20109;-79
2023/03/31 11:00:36;;;;;;;12.48;4.43;;;;;;;11.16;100.00;99109.22;10389752;28;20110;-79
2023/03/31 11:05:51;;;;;;;10.18;3.08;;;;;;;11.06;100.00;99111.75;10374984;28;20034;-79
2023/03/31 11:11:11;;;;;;;10.95;3.25;;;;;;;10.92;100.00;99118.56;10372149;28;20088;-78
2023/03/31 11:16:33;;;;;;;11.70;3.97;;;;;;;10.96;100.00;99117.00;10373980;28;20036;-78
2023/03/31 11:21:49;;;;;;;10.30;3.60;;;;;;;10.92;100.00;99103.13;10376126;28;20029;-78
2023/03/31 11:27:15;;;;;;;14.98;3.83;;;;;;;10.88;100.00;99104.69;10374713;28;20053;-81
2023/03/31 11:32:50;;;;;;;9.57;2.95;;;;;;;10.89;100.00;99102.78;10365248;28;20061;-79
2023/03/31 11:38:04;;;;;;;14.63;4.88;;;;;;;10.93;100.00;99090.41;10394353;28;20405;-81
2023/03/31 11:43:14;;;;;;;7.20;3.35;;;;;;;11.07;100.00;99082.78;10374691;28;20022;-83
2023/03/31 11:48:26;;;;;;;2.78;2.45;;;;;;;10.95;100.00;99091.00;10374576;28;20021;-79
2023/03/31 11:53:30;;;;;;;2.65;2.08;;;;;;;10.93;100.00;99091.22;10388878;28;20088;-81
2023/03/31 11:58:44;;;;;;;1.73;1.42;;;;;;;11.26;100.00;99075.22;10389155;28;20446;-80
2023/03/31 12:03:56;;;;;;;6.13;2.45;;;;;;;10.92;100.00;99056.28;10374489;28;20445;-80
2023/03/31 12:08:56;;;;;;;8.23;2.80;;;;;;;10.66;100.00;99060.44;10374432;28;20076;-81
2023/03/31 12:14:18;;;;;;;10.43;2.40;;;;;;;10.66;100.00;99061.25;10373016;28;20072;-81
2023/03/31 12:19:34;;;;;;;8.75;2.67;;;;;;;10.45;100.00;99057.31;10374047;28;20025;-80
2023/03/31 12:24:35;;;;;;;9.40;3.22;;;;;;;10.48;100.00;99047.91;10373655;28;20022;-80
2023/03/31 12:29:44;;;;;;;18.90;5.70;;;;;;;10.53;100.00;99047.16;10388525;28;20046;-80
2023/03/31 12:34:49;;;;;;;11.95;3.70;;;;;;;10.82;100.00;99048.81;10374894;28;20022;-81
2023/03/31 12:39:58;;;;;;;5.10;2.33;;;;;;;10.73;100.00;99044.84;10374049;28;20026;-79
2023/03/31 12:45:03;;;;;;;3.97;1.48;;;;;;;10.64;100.00;99040.88;10381237;28;20037;-78
2023/03/31 12:50:22;;;;;;;7.60;2.63;;;;;;;10.69;100.00;99032.88;10380881;28;20026;-79
2023/03/31 12:55:32;;;;;;;7.93;3.58;;;;;;;10.78;100.00;99028.66;10380368;28;20034;-79
2023/03/31 13:00:33;;;;;;;3.70;2.78;;;;;;;10.69;100.00;99009.31;10381569;28;20030;-80
2023/03/31 13:05:36;;;;;;;4.10;2.70;;;;;;;11.03;100.00;99009.31;10396554;28;20100;-80
2023/03/31 13:10:57;;;;;;;10.95;4.18;;;;;;;11.01;100.00;98999.78;10380852;28;20045;-80
2023/03/31 13:15:58;;;;;;;8.82;2.83;;;;;;;11.10;100.00;98996.44;10380091;28;20034;-82
2023/03/31 13:20:59;;;;;;;9.88;4.00;;;;;;;11.27;100.00;98992.91;10396171;28;20346;-81
2023/03/31 13:26:00;;;;;;;6.82;2.50;;;;;;;10.99;100.00;98999.25;10395444;28;20021;-82
2023/03/31 13:31:10;;;;;;;8.63;3.47;;;;;;;11.15;100.00;98990.28;10381246;28;20061;-81
2023/03/31 13:36:18;;;;;;;8.13;3.30;;;;;;;11.14;100.00;98984.03;10379995;28;20478;-83
2023/03/31 13:41:22;;;;;;;5.38;2.35;;;;;;;11.04;100.00;98986.59;10404867;28;20033;-83
2023/03/31 13:46:29;;;;;;;7.40;3.22;;;;;;;11.09;100.00;98975.81;10404760;28;20033;-85
2023/03/31 13:51:50;;;;;;;5.43;2.47;;;;;;;10.97;100.00;98974.28;10386491;28;20037;-82
2023/03/31 13:57:23;;;;;;;4.82;1.65;;;;;;;11.05;100.00;98968.47;10393919;28;20034;-83
2023/03/31 14:03:01;;;;;;;14.75;3.28;;;;;;;10.92;100.00;98972.31;10394201;28;20450;-82
2023/03/31 14:08:13;;;;;;;;;;;;;;;10.64;100.00;98975.94;10379183;28;20065;-81
2023/03/31 14:13:15;;;;;;;7.38;3.40;;;;;;;10.51;100.00;98963.53;10376062;28;20360;-79
2023/03/31 14:18:25;;;;;;;5.13;2.67;;;;;;;10.48;100.00;98954.00;10392650;28;20136;-80
2023/03/31 14:23:32;;;;;;;2.83;2.63;;;;;;;10.31;100.00;98958.59;10377335;28;20421;-77
2023/03/31 14:28:45;;;;;;;;;;;;;;;10.41;100.00;98957.94;10392768;28;20085;-77
2023/03/31 14:34:08;;;;;;;5.82;3.25;;;;;;;10.31;100.00;98949.66;10376220;28;19916;-78
2023/03/31 14:39:09;;;;;;;2.00;1.83;;;;;;;10.24;100.00;98958.72;10377156;28;20095;-79
2023/03/31 14:44:13;;;;;;;5.80;3.17;;;;;;;10.29;100.00;98946.38;10391640;28;20034;-77
2023/03/31 14:49:26;;;;;;;2.75;2.50;;;;;;;10.39;100.00;98935.72;10392045;28;20038;-77
2023/03/31 14:54:27;;;;;;;3.72;3.13;;;;;;;10.25;100.00;98927.06;10391858;28;20038;-77
2023/03/31 14:59:29;;;;;;;5.95;3.28;;;;;;;10.27;100.00;98934.97;10375395;28;20038;-77
2023/03/31 15:04:30;;;;;;;10.95;3.53;;;;;;;10.30;100.00;98927.16;10358467;28;20033;-78
2023/03/31 15:09:32;;;;;;;6.25;3.30;;;;;;;10.29;100.00;98933.66;10374411;28;20069;-77
2023/03/31 15:14:35;;;;;;;11.45;3.15;;;;;;;10.32;100.00;98927.75;10358951;28;20030;-78
2023/03/31 15:19:35;;;;;;;11.93;2.83;;;;;;;10.31;100.00;98915.31;10389920;28;20017;-77
2023/03/31 15:24:36;;;;;;;7.15;3.92;;;;;;;10.34;100.00;98905.84;10374486;28;20033;-77
2023/03/31 15:29:37;;;;;;;10.02;3.67;;;;;;;10.50;100.00;98913.19;10389576;28;20145;-77
2023/03/31 15:34:38;;;;;;;5.95;2.40;;;;;;;10.28;100.00;98896.84;10357214;28;20083;-77
2023/03/31 15:39:38;;;;;;;5.13;3.28;;;;;;;10.22;100.00;98890.50;10372675;28;20501;-77
2023/03/31 15:44:54;;;;;;;3.15;1.98;;;;;;;10.10;100.00;98892.44;10389725;28;20128;-76
2023/03/31 15:50:13;;;;;;;6.80;2.80;;;;;;;10.22;100.00;98887.78;10389012;28;20093;-76
2023/03/31 15:55:27;;;;;;;5.32;2.25;;;;;;;10.05;100.00;98878.84;10390156;28;20030;-76
2023/03/31 16:00:53;;;;;;;2.83;2.55;;;;;;;9.98;100.00;98883.56;10390088;28;20033;-76
2023/03/31 16:05:57;;;;;;;3.15;2.28;;;;;;;9.91;100.00;98882.91;10390349;28;20409;-76
2023/03/31 16:11:01;;;;;;;7.47;3.53;;;;;;;9.88;100.00;98877.97;10375116;28;20042;-77
2023/03/31 16:16:01;;;;;;;4.13;2.88;;;;;;;9.87;100.00;98879.06;10378006;28;20474;-76
2023/03/31 16:21:03;;;;;;;11.30;4.35;;;;;;;10.15;100.00;98880.91;10382922;28;20073;-77
2023/03/31 16:26:03;;;;;;;8.13;4.35;;;;;;;10.21;100.00;98869.09;10381755;28;20403;-77
2023/03/31 16:31:04;;;;;;;3.97;2.88;;;;;;;10.08;100.00;98867.53;10382384;28;20091;-77
2023/03/31 16:36:07;;;;;;;12.30;2.97;;;;;;;9.90;100.00;98865.06;10397189;28;20109;-77
2023/03/31 16:41:08;;;;;;;3.67;3.10;;;;;;;9.89;100.00;98858.00;10395631;28;20030;-75
2023/03/31 16:46:08;;;;;;;4.45;2.17;;;;;;;9.79;100.00;98864.03;10381419;28;20497;-75
2023/03/31 16:51:08;;;;;;;10.20;3.42;;;;;;;9.84;100.00;98857.91;10379821;28;20116;-74
2023/03/31 16:56:10;;;;;;;5.20;3.45;;;;;;;9.80;100.00;98856.75;10380771;28;20034;-74
2023/03/31 17:01:11;;;;;;;5.18;1.88;;;;;;;9.72;100.00;98857.97;10379235;28;20041;-75
2023/03/31 17:06:11;;;;;;;8.00;2.63;;;;;;;9.67;100.00;98850.59;10378846;28;20434;-76
2023/03/31 17:11:13;;;;;;;5.88;3.50;;;;;;;9.59;100.00;98837.44;10379549;28;20030;-77
2023/03/31 17:16:13;;;;;;;13.25;4.32;;;;;;;9.51;100.00;98863.00;10362507;28;20038;-77
2023/03/31 17:21:14;;;;;;;15.05;4.78;;;;;;;9.48;100.00;98844.56;10395460;28;20180;-76
2023/03/31 17:26:15;;;;;;;22.25;5.85;;;;;;;9.54;100.00;98857.09;10394046;28;20081;-77
2023/03/31 17:31:17;;;;;;;19.00;5.07;;;;;;;9.41;100.00;98854.69;10378440;28;20034;-76
2023/03/31 17:36:17;;;;;;;20.48;4.85;;;;;;;9.44;100.00;98843.38;10379203;28;20038;-75
2023/03/31 17:41:18;;;;;;;12.75;4.72;;;;;;;9.34;100.00;98839.66;10378260;28;20030;-75
2023/03/31 17:46:18;;;;;;;25.20;6.50;;;;;;;9.37;100.00;98858.91;10377882;28;20057;-76
2023/03/31 17:51:19;;;;;;;37.35;7.10;;;;;;;9.36;100.00;98846.47;10378123;28;20509;-76
2023/03/31 17:56:19;;;;;;;34.97;7.70;;;;;;;9.42;100.00;98859.03;10378605;28;20096;-77
2023/03/31 18:01:20;;;;;;;15.63;6.32;;;;;;;9.42;100.00;98859.03;10393602;28;20045;-77
2023/03/31 18:06:21;;;;;;;22.55;5.38;;;;;;;9.36;100.00;98849.19;10378056;28;20041;-75
2023/03/31 18:11:21;;;;;;;13.90;5.22;;;;;;;9.41;100.00;98845.75;10378224;28;20037;-75
2023/03/31 18:16:22;;;;;;;21.35;4.70;;;;;;;9.45;100.00;98839.63;10393168;28;20026;-75
2023/03/31 18:21:22;;;;;;;28.15;6.35;;;;;;;9.47;100.00;98853.69;10377641;28;20041;-76
2023/03/31 18:26:23;;;;;;;17.40;5.80;;;;;;;9.44;100.00;98851.47;10392705;28;20517;-74
2023/03/31 18:31:26;;;;;;;26.10;6.55;;;;;;;9.40;100.00;98852.22;10376492;28;20180;-75
2023/03/31 18:36:26;;;;;;;19.83;4.35;;;;;;;9.40;100.00;98844.09;10393060;28;20408;-76
2023/03/31 18:41:27;;;;;;;23.05;3.85;;;;;;;9.43;100.00;98847.16;10374623;28;20113;-75
2023/03/31 18:46:27;;;;;;;14.35;4.47;;;;;;;9.41;100.00;98845.75;10375312;28;20048;-76
2023/03/31 18:51:28;;;;;;;22.25;5.22;;;;;;;9.35;100.00;98842.13;10376815;28;20037;-76
2023/03/31 18:56:28;;;;;;;24.40;6.80;;;;;;;9.37;100.00;98840.00;10391726;28;20116;-76
2023/03/31 19:01:31;;;;;;;32.92;9.60;;;;;;;9.38;100.00;98848.91;10391259;28;20033;-78
2023/03/31 19:06:31;;;;;;;26.75;8.63;;;;;;;9.40;100.00;98844.91;10376050;28;20038;-78
2023/03/31 19:11:32;;;;;;;28.13;8.65;;;;;;;9.39;100.00;98846.00;10376140;28;20030;-77
2023/03/31 19:16:40;;;;;;;15.65;6.80;;;;;;;9.44;100.00;98846.06;10376714;28;20113;-77
2023/03/31 19:21:41;;;;;;;21.67;7.38;;;;;;;9.40;100.00;98842.22;10375907;28;20038;-78
2023/03/31 19:26:42;;;;;;;31.35;6.82;;;;;;;9.46;100.00;98848.56;10375918;28;20084;-77
2023/03/31 19:31:43;;;;;;;25.95;6.85;;;;;;;9.49;100.00;98848.88;10389929;28;20099;-77
2023/03/31 19:36:44;;;;;;;19.10;5.53;;;;;;;9.54;100.00;98848.19;10374791;28;20033;-76
2023/03/31 19:41:45;;;;;;;15.23;6.25;;;;;;;9.52;100.00;98845.72;10391975;28;20132;-76
2023/03/31 19:46:47;;;;;;;32.95;10.13;;;;;;;9.59;100.00;98852.84;10374690;28;20026;-78
2023/03/31 19:51:47;;;;;;;27.08;7.55;;;;;;;9.56;100.00;98848.75;10374914;28;20126;-77
2023/03/31 19:56:48;;;;;;;29.48;8.45;;;;;;;9.59;100.00;98852.84;10391156;28;20510;-77
2023/03/31 20:01:49;;;;;;;25.70;8.50;;;;;;;9.58;100.00;98854.75;10373467;28;20030;-78
2023/03/31 20:06:49;;;;;;;36.88;9.73;;;;;;;9.54;100.00;98851.69;10390652;28;20054;-78
2023/03/31 20:11:52;;;;;;;21.33;6.85;;;;;;;9.54;100.00;98857.09;10374762;28;20061;-78
2023/03/31 20:16:53;;;;;;;41.10;9.65;;;;;;;9.58;100.00;98853.91;10375352;28;20065;-79
2023/03/31 20:21:54;;;;;;;22.85;7.75;;;;;;;9.61;100.00;98850.75;10373603;28;20062;-78
2023/03/31 20:26:55;;;;;;;25.00;7.53;;;;;;;9.59;100.00;98855.56;10373375;28;20061;-79
2023/03/31 20:31:55;;;;;;;31.00;8.57;;;;;;;9.64;100.00;98861.88;10373756;28;20046;-81
2023/03/31 20:36:56;;;;;;;22.95;7.80;;;;;;;9.59;100.00;98852.84;10373932;28;20080;-79
2023/03/31 20:41:56;;;;;;;11.55;6.20;;;;;;;9.61;100.00;98867.78;10372964;28;20038;-79
2023/03/31 20:46:59;;;;;;;16.73;7.32;;;;;;;9.63;100.00;98865.63;10374495;28;20034;-81
2023/03/31 20:51:59;;;;;;;26.92;8.93;;;;;;;9.63;100.00;98870.22;10389250;28;20037;-78
2023/03/31 20:57:00;;;;;;;23.85;8.43;;;;;;;9.66;100.00;98875.13;10373436;28;20034;-79
2023/03/31 21:02:02;;;;;;;35.42;11.57;;;;;;;9.64;100.00;98879.97;10373980;28;20049;-76
2023/03/31 21:07:02;;;;;;;35.47;10.88;;;;;;;9.65;100.00;98876.22;10380582;28;20088;-78
2023/03/31 21:12:03;;;;;;;31.92;10.80;;;;;;;9.58;100.00;98886.34;10379303;28;20096;-78
2023/03/31 21:17:04;;;;;;;27.80;13.55;;;;;;;9.62;100.00;98874.81;10378878;28;20363;-79
2023/03/31 21:22:04;;;;;;;29.98;12.10;;;;;;;9.64;100.00;98897.00;10381216;28;20034;-78
2023/03/31 21:27:04;;;;;;;21.90;9.35;;;;;;;9.65;100.00;98900.53;10379912;28;20486;-78
2023/03/31 21:32:05;;;;;;;35.40;9.95;;;;;;;9.63;100.00;98916.97;10379168;28;20034;-78
2023/03/31 21:37:07;;;;;;;24.38;10.15;;;;;;;9.66;100.00;98916.50;10380026;28;20044;-78
2023/03/31 21:42:08;;;;;;;23.35;9.65;;;;;;;9.65;100.00;98914.84;10377941;28;20125;-77
2023/03/31 21:47:08;;;;;;;16.35;7.50;;;;;;;9.58;100.00;98922.28;10394702;28;20109;-77
2023/03/31 21:52:09;;;;;;;23.92;6.90;;;;;;;9.53;100.00;98928.41;10376601;28;20049;-77
2023/03/31 21:57:09;;;;;;;24.27;6.90;;;;;;;9.55;100.00;98936.28;10378881;28;20084;-76
2023/03/31 22:02:10;;;;;;;23.52;7.00;;;;;;;9.50;100.00;98936.97;10378841;28;20068;-77
2023/03/31 22:07:13;;;;;;;45.85;11.45;;;;;;;9.51;100.00;98944.03;10394556;28;20041;-77
2023/03/31 22:12:13;;;;;;;50.13;14.85;;;;;;;9.48;100.00;98952.63;10393196;28;20033;-78
2023/03/31 22:17:14;;;;;;;46.83;15.82;;;;;;;9.40;100.00;98961.09;10377993;28;20513;-77
2023/03/31 22:22:15;;;;;;;45.33;14.30;;;;;;;9.31;100.00;98971.41;10393150;28;20065;-79
2023/03/31 22:27:16;;;;;;;41.22;14.50;;;;;;;9.31;100.00;98978.72;10392377;28;20065;-77
2023/03/31 22:32:18;;;;;;;52.30;14.82;;;;;;;9.31;100.00;98981.41;10376479;28;20060;-78
2023/03/31 22:37:19;;;;;;;29.30;15.63;;;;;;;9.29;100.00;98987.06;10378808;28;20041;-76
2023/03/31 22:42:20;;;;;;;49.33;18.95;;;;;;;9.25;100.00;98990.44;10380149;28;20502;-77
2023/03/31 22:47:20;;;;;;;71.50;21.27;;;;;;;9.25;100.00;98994.00;10363196;28;20091;-77
2023/03/31 22:52:21;;;;;;;59.97;19.55;;;;;;;9.22;100.00;99007.13;10380149;28;20080;-79
2023/03/31 22:57:21;;;;;;;53.70;16.58;;;;;;;9.16;100.00;99008.91;10377783;28;20042;-77
2023/03/31 23:02:22;;;;;;;47.75;18.60;;;;;;;9.13;100.00;99028.28;10375203;28;20068;-77
2023/03/31 23:07:22;;;;;;;59.63;20.23;;;;;;;9.13;100.00;99022.06;10375720;28;20038;-77
2023/03/31 23:12:26;;;;;;;51.33;17.15;;;;;;;9.16;100.00;99035.91;10376454;28;20036;-77
2023/03/31 23:17:26;;;;;;;62.65;20.75;;;;;;;9.12;100.00;99036.59;10376962;28;20040;-77
2023/03/31 23:22:27;;;;;;;55.25;18.98;;;;;;;9.11;100.00;99054.69;10376894;28;20060;-77